sensor_id;sensor_type;location;lat;lon;timestamp;P1;durP1;ratioP1;P2;durP2;ratioP2
14078;SDS011;7115;50.150;8.568;2023-06-22T00:01:21;5.13;;;4.30;;
14078;SDS011;7115;50.150;8.568;2023-06-22T00:03:51;6.53;;;4.30;;
14078;SDS011;7115;50.150;8.568;2023-06-22T00:06:19;6.47;;;4.50;;
14078;SDS011;7115;50.150;8.568;2023-06-22T00:08:46;6.03;;;4.63;;
14078;SDS011;7115;50.150;8.568;2023-06-22T00:11:13;7.87;;;4.90;;
14078;SDS011;7115;50.150;8.568;2023-06-22T00:13:40;5.20;;;4.70;;
14078;SDS011;7115;50.150;8.568;2023-06-22T00:16:06;4.80;;;4.30;;
14078;SDS011;7115;50.150;8.568;2023-06-22T00:18:33;5.03;;;4.53;;
14078;SDS011;7115;50.150;8.568;2023-06-22T00:21:00;5.77;;;4.60;;
14078;SDS011;7115;50.150;8.568;2023-06-22T00:23:28;5.80;;;4.50;;
14078;SDS011;7115;50.150;8.568;2023-06-22T00:26:00;5.93;;;4.40;;
14078;SDS011;7115;50.150;8.568;2023-06-22T00:28:27;5.07;;;4.30;;
14078;SDS011;7115;50.150;8.568;2023-06-22T00:30:55;5.03;;;4.13;;
14078;SDS011;7115;50.150;8.568;2023-06-22T00:33:22;5.97;;;4.60;;
14078;SDS011;7115;50.150;8.568;2023-06-22T00:35:48;5.20;;;4.70;;
14078;SDS011;7115;50.150;8.568;2023-06-22T00:38:19;5.70;;;4.73;;
14078;SDS011;7115;50.150;8.568;2023-06-22T00:40:47;5.80;;;4.80;;
14078;SDS011;7115;50.150;8.568;2023-06-22T00:43:14;5.73;;;5.00;;
14078;SDS011;7115;50.150;8.568;2023-06-22T00:45:41;6.17;;;4.53;;
14078;SDS011;7115;50.150;8.568;2023-06-22T00:48:08;6.30;;;5.03;;
14078;SDS011;7115;50.150;8.568;2023-06-22T00:50:35;6.80;;;4.70;;
14078;SDS011;7115;50.150;8.568;2023-06-22T00:53:03;5.43;;;4.47;;
14078;SDS011;7115;50.150;8.568;2023-06-22T00:55:35;6.57;;;4.17;;
14078;SDS011;7115;50.150;8.568;2023-06-22T00:58:07;4.97;;;4.27;;
14078;SDS011;7115;50.150;8.568;2023-06-22T01:00:37;5.00;;;4.47;;
14078;SDS011;7115;50.150;8.568;2023-06-22T01:03:04;5.03;;;4.40;;
14078;SDS011;7115;50.150;8.568;2023-06-22T01:05:36;5.70;;;4.73;;
14078;SDS011;7115;50.150;8.568;2023-06-22T01:08:08;5.20;;;4.70;;
14078;SDS011;7115;50.150;8.568;2023-06-22T01:10:44;14.53;;;4.97;;
14078;SDS011;7115;50.150;8.568;2023-06-22T01:13:21;6.70;;;5.23;;
14078;SDS011;7115;50.150;8.568;2023-06-22T01:15:55;6.00;;;5.37;;
14078;SDS011;7115;50.150;8.568;2023-06-22T01:18:26;5.47;;;4.80;;
14078;SDS011;7115;50.150;8.568;2023-06-22T01:20:55;5.97;;;4.67;;
14078;SDS011;7115;50.150;8.568;2023-06-22T01:23:26;6.73;;;5.60;;
14078;SDS011;7115;50.150;8.568;2023-06-22T01:26:14;7.23;;;5.70;;
14078;SDS011;7115;50.150;8.568;2023-06-22T01:28:47;5.73;;;5.10;;
14078;SDS011;7115;50.150;8.568;2023-06-22T01:31:16;6.33;;;5.27;;
14078;SDS011;7115;50.150;8.568;2023-06-22T01:33:45;6.13;;;5.53;;
14078;SDS011;7115;50.150;8.568;2023-06-22T01:36:16;7.00;;;5.77;;
14078;SDS011;7115;50.150;8.568;2023-06-22T01:38:44;6.20;;;5.60;;
14078;SDS011;7115;50.150;8.568;2023-06-22T01:41:11;6.40;;;5.37;;
14078;SDS011;7115;50.150;8.568;2023-06-22T01:43:39;11.10;;;5.57;;
14078;SDS011;7115;50.150;8.568;2023-06-22T01:46:08;6.60;;;5.10;;
14078;SDS011;7115;50.150;8.568;2023-06-22T01:48:36;7.70;;;5.40;;
14078;SDS011;7115;50.150;8.568;2023-06-22T01:51:03;7.77;;;5.97;;
14078;SDS011;7115;50.150;8.568;2023-06-22T01:53:30;7.07;;;5.77;;
14078;SDS011;7115;50.150;8.568;2023-06-22T01:55:57;6.23;;;5.23;;
14078;SDS011;7115;50.150;8.568;2023-06-22T01:58:25;6.07;;;5.47;;
14078;SDS011;7115;50.150;8.568;2023-06-22T02:00:56;5.93;;;5.33;;
14078;SDS011;7115;50.150;8.568;2023-06-22T02:03:28;6.40;;;5.77;;
14078;SDS011;7115;50.150;8.568;2023-06-22T02:06:04;7.63;;;5.70;;
14078;SDS011;7115;50.150;8.568;2023-06-22T02:08:37;6.53;;;5.80;;
14078;SDS011;7115;50.150;8.568;2023-06-22T02:11:08;8.60;;;6.20;;
14078;SDS011;7115;50.150;8.568;2023-06-22T02:13:36;6.60;;;5.90;;
14078;SDS011;7115;50.150;8.568;2023-06-22T02:16:07;9.63;;;6.57;;
14078;SDS011;7115;50.150;8.568;2023-06-22T02:18:35;9.60;;;6.80;;
14078;SDS011;7115;50.150;8.568;2023-06-22T02:21:02;8.53;;;6.07;;
14078;SDS011;7115;50.150;8.568;2023-06-22T02:23:29;8.20;;;6.17;;
14078;SDS011;7115;50.150;8.568;2023-06-22T02:25:56;6.30;;;5.57;;
14078;SDS011;7115;50.150;8.568;2023-06-22T02:28:23;7.43;;;6.10;;
14078;SDS011;7115;50.150;8.568;2023-06-22T02:30:50;7.53;;;5.97;;
14078;SDS011;7115;50.150;8.568;2023-06-22T02:33:17;6.87;;;6.17;;
14078;SDS011;7115;50.150;8.568;2023-06-22T02:35:45;8.10;;;6.00;;
14078;SDS011;7115;50.150;8.568;2023-06-22T02:38:15;9.60;;;6.57;;
14078;SDS011;7115;50.150;8.568;2023-06-22T02:40:42;7.47;;;6.10;;
14078;SDS011;7115;50.150;8.568;2023-06-22T02:43:08;7.30;;;6.37;;
14078;SDS011;7115;50.150;8.568;2023-06-22T02:45:35;8.97;;;6.57;;
14078;SDS011;7115;50.150;8.568;2023-06-22T02:48:02;6.87;;;6.20;;
14078;SDS011;7115;50.150;8.568;2023-06-22T02:50:30;6.93;;;6.23;;
14078;SDS011;7115;50.150;8.568;2023-06-22T02:52:58;7.57;;;6.10;;
14078;SDS011;7115;50.150;8.568;2023-06-22T02:55:25;11.07;;;6.63;;
14078;SDS011;7115;50.150;8.568;2023-06-22T02:57:52;7.67;;;6.73;;
14078;SDS011;7115;50.150;8.568;2023-06-22T03:00:19;8.50;;;6.87;;
14078;SDS011;7115;50.150;8.568;2023-06-22T03:02:46;10.47;;;6.93;;
14078;SDS011;7115;50.150;8.568;2023-06-22T03:05:15;7.70;;;6.70;;
14078;SDS011;7115;50.150;8.568;2023-06-22T03:07:44;10.37;;;6.90;;
14078;SDS011;7115;50.150;8.568;2023-06-22T03:10:13;8.93;;;6.80;;
14078;SDS011;7115;50.150;8.568;2023-06-22T03:12:41;7.47;;;6.50;;
14078;SDS011;7115;50.150;8.568;2023-06-22T03:15:09;7.17;;;6.47;;
14078;SDS011;7115;50.150;8.568;2023-06-22T03:17:37;6.43;;;5.83;;
14078;SDS011;7115;50.150;8.568;2023-06-22T03:20:06;7.13;;;5.43;;
14078;SDS011;7115;50.150;8.568;2023-06-22T03:22:38;7.13;;;5.83;;
14078;SDS011;7115;50.150;8.568;2023-06-22T03:25:05;7.63;;;6.00;;
14078;SDS011;7115;50.150;8.568;2023-06-22T03:27:41;6.30;;;5.70;;
14078;SDS011;7115;50.150;8.568;2023-06-22T03:30:09;7.23;;;5.70;;
14078;SDS011;7115;50.150;8.568;2023-06-22T03:32:37;6.30;;;5.70;;
14078;SDS011;7115;50.150;8.568;2023-06-22T03:35:05;7.13;;;6.17;;
14078;SDS011;7115;50.150;8.568;2023-06-22T03:37:32;6.90;;;5.97;;
14078;SDS011;7115;50.150;8.568;2023-06-22T03:39:59;6.10;;;5.43;;
14078;SDS011;7115;50.150;8.568;2023-06-22T03:42:26;6.07;;;5.47;;
14078;SDS011;7115;50.150;8.568;2023-06-22T03:44:55;7.83;;;6.13;;
14078;SDS011;7115;50.150;8.568;2023-06-22T03:47:21;9.90;;;6.20;;
14078;SDS011;7115;50.150;8.568;2023-06-22T03:49:48;6.47;;;5.77;;
14078;SDS011;7115;50.150;8.568;2023-06-22T03:52:15;8.00;;;6.00;;
14078;SDS011;7115;50.150;8.568;2023-06-22T03:54:42;8.10;;;6.20;;
14078;SDS011;7115;50.150;8.568;2023-06-22T03:57:09;7.83;;;6.50;;
14078;SDS011;7115;50.150;8.568;2023-06-22T03:59:37;8.30;;;6.33;;
14078;SDS011;7115;50.150;8.568;2023-06-22T04:02:05;7.20;;;6.50;;
14078;SDS011;7115;50.150;8.568;2023-06-22T04:04:32;9.77;;;6.30;;
14078;SDS011;7115;50.150;8.568;2023-06-22T04:07:01;7.23;;;6.00;;
14078;SDS011;7115;50.150;8.568;2023-06-22T04:09:28;7.90;;;7.00;;
14078;SDS011;7115;50.150;8.568;2023-06-22T04:11:55;7.60;;;6.10;;
14078;SDS011;7115;50.150;8.568;2023-06-22T04:14:21;11.03;;;6.93;;
14078;SDS011;7115;50.150;8.568;2023-06-22T04:16:48;9.20;;;6.47;;
14078;SDS011;7115;50.150;8.568;2023-06-22T04:19:16;10.30;;;6.77;;
14078;SDS011;7115;50.150;8.568;2023-06-22T04:21:43;11.20;;;7.23;;
14078;SDS011;7115;50.150;8.568;2023-06-22T04:24:10;7.83;;;6.80;;
14078;SDS011;7115;50.150;8.568;2023-06-22T04:26:37;6.90;;;6.20;;
14078;SDS011;7115;50.150;8.568;2023-06-22T04:29:07;7.00;;;6.30;;
14078;SDS011;7115;50.150;8.568;2023-06-22T04:31:37;12.37;;;7.60;;
14078;SDS011;7115;50.150;8.568;2023-06-22T04:34:04;14.40;;;7.57;;
14078;SDS011;7115;50.150;8.568;2023-06-22T04:36:37;12.70;;;7.40;;
14078;SDS011;7115;50.150;8.568;2023-06-22T04:39:05;11.17;;;7.17;;
14078;SDS011;7115;50.150;8.568;2023-06-22T04:41:33;9.13;;;6.77;;
14078;SDS011;7115;50.150;8.568;2023-06-22T04:44:08;12.33;;;6.53;;
14078;SDS011;7115;50.150;8.568;2023-06-22T04:46:35;7.73;;;6.93;;
14078;SDS011;7115;50.150;8.568;2023-06-22T04:49:05;7.93;;;6.73;;
14078;SDS011;7115;50.150;8.568;2023-06-22T04:51:32;8.63;;;7.03;;
14078;SDS011;7115;50.150;8.568;2023-06-22T04:54:01;11.37;;;7.43;;
14078;SDS011;7115;50.150;8.568;2023-06-22T04:56:27;7.97;;;5.97;;
14078;SDS011;7115;50.150;8.568;2023-06-22T04:58:54;9.27;;;6.67;;
14078;SDS011;7115;50.150;8.568;2023-06-22T05:01:23;10.70;;;6.77;;
14078;SDS011;7115;50.150;8.568;2023-06-22T05:03:51;14.33;;;7.40;;
14078;SDS011;7115;50.150;8.568;2023-06-22T05:06:21;13.07;;;7.63;;
14078;SDS011;7115;50.150;8.568;2023-06-22T05:08:51;11.77;;;7.97;;
14078;SDS011;7115;50.150;8.568;2023-06-22T05:11:21;10.07;;;7.17;;
14078;SDS011;7115;50.150;8.568;2023-06-22T05:13:47;8.53;;;6.60;;
14078;SDS011;7115;50.150;8.568;2023-06-22T05:16:14;13.43;;;6.37;;
14078;SDS011;7115;50.150;8.568;2023-06-22T05:18:41;9.17;;;7.03;;
14078;SDS011;7115;50.150;8.568;2023-06-22T05:21:09;8.47;;;6.53;;
14078;SDS011;7115;50.150;8.568;2023-06-22T05:23:36;11.03;;;6.47;;
14078;SDS011;7115;50.150;8.568;2023-06-22T05:26:03;8.83;;;6.57;;
14078;SDS011;7115;50.150;8.568;2023-06-22T05:28:31;7.53;;;6.57;;
14078;SDS011;7115;50.150;8.568;2023-06-22T05:30:59;9.13;;;6.80;;
14078;SDS011;7115;50.150;8.568;2023-06-22T05:33:26;7.37;;;6.37;;
14078;SDS011;7115;50.150;8.568;2023-06-22T05:35:53;7.90;;;6.60;;
14078;SDS011;7115;50.150;8.568;2023-06-22T05:38:19;7.67;;;6.37;;
14078;SDS011;7115;50.150;8.568;2023-06-22T05:40:46;9.40;;;6.60;;
14078;SDS011;7115;50.150;8.568;2023-06-22T05:43:13;9.23;;;6.30;;
14078;SDS011;7115;50.150;8.568;2023-06-22T05:45:42;7.87;;;6.70;;
14078;SDS011;7115;50.150;8.568;2023-06-22T05:48:09;9.47;;;6.27;;
14078;SDS011;7115;50.150;8.568;2023-06-22T05:50:36;9.60;;;6.23;;
14078;SDS011;7115;50.150;8.568;2023-06-22T05:53:03;9.07;;;6.63;;
14078;SDS011;7115;50.150;8.568;2023-06-22T05:55:30;9.53;;;7.30;;
14078;SDS011;7115;50.150;8.568;2023-06-22T05:58:00;8.67;;;6.90;;
14078;SDS011;7115;50.150;8.568;2023-06-22T06:00:27;12.37;;;7.37;;
14078;SDS011;7115;50.150;8.568;2023-06-22T06:02:56;9.77;;;6.17;;
14078;SDS011;7115;50.150;8.568;2023-06-22T06:05:23;8.00;;;6.73;;
14078;SDS011;7115;50.150;8.568;2023-06-22T06:07:51;12.37;;;7.37;;
14078;SDS011;7115;50.150;8.568;2023-06-22T06:10:18;7.50;;;6.70;;
14078;SDS011;7115;50.150;8.568;2023-06-22T06:12:45;11.17;;;6.70;;
14078;SDS011;7115;50.150;8.568;2023-06-22T06:15:12;8.53;;;6.40;;
14078;SDS011;7115;50.150;8.568;2023-06-22T06:17:45;11.30;;;6.87;;
14078;SDS011;7115;50.150;8.568;2023-06-22T06:20:14;6.73;;;6.07;;
14078;SDS011;7115;50.150;8.568;2023-06-22T06:22:41;9.50;;;8.30;;
14078;SDS011;7115;50.150;8.568;2023-06-22T06:25:09;9.77;;;7.13;;
14078;SDS011;7115;50.150;8.568;2023-06-22T06:27:36;7.60;;;6.73;;
14078;SDS011;7115;50.150;8.568;2023-06-22T06:30:03;6.63;;;6.03;;
14078;SDS011;7115;50.150;8.568;2023-06-22T06:32:31;8.70;;;5.73;;
14078;SDS011;7115;50.150;8.568;2023-06-22T06:34:58;7.47;;;6.47;;
14078;SDS011;7115;50.150;8.568;2023-06-22T06:37:26;7.70;;;6.60;;
14078;SDS011;7115;50.150;8.568;2023-06-22T06:39:54;8.57;;;6.53;;
14078;SDS011;7115;50.150;8.568;2023-06-22T06:42:20;8.63;;;6.80;;
14078;SDS011;7115;50.150;8.568;2023-06-22T06:44:49;7.70;;;6.67;;
14078;SDS011;7115;50.150;8.568;2023-06-22T06:47:16;9.90;;;6.43;;
14078;SDS011;7115;50.150;8.568;2023-06-22T06:49:43;9.33;;;7.00;;
14078;SDS011;7115;50.150;8.568;2023-06-22T06:52:10;8.03;;;6.60;;
14078;SDS011;7115;50.150;8.568;2023-06-22T06:54:38;7.03;;;6.23;;
14078;SDS011;7115;50.150;8.568;2023-06-22T06:57:05;7.30;;;6.50;;
14078;SDS011;7115;50.150;8.568;2023-06-22T06:59:32;8.70;;;6.43;;
14078;SDS011;7115;50.150;8.568;2023-06-22T07:01:59;7.87;;;6.40;;
14078;SDS011;7115;50.150;8.568;2023-06-22T07:04:26;9.07;;;6.40;;
14078;SDS011;7115;50.150;8.568;2023-06-22T07:06:53;6.70;;;5.97;;
14078;SDS011;7115;50.150;8.568;2023-06-22T07:09:20;7.50;;;6.03;;
14078;SDS011;7115;50.150;8.568;2023-06-22T07:11:48;7.20;;;6.50;;
14078;SDS011;7115;50.150;8.568;2023-06-22T07:14:15;8.30;;;6.23;;
14078;SDS011;7115;50.150;8.568;2023-06-22T07:16:41;8.10;;;6.37;;
14078;SDS011;7115;50.150;8.568;2023-06-22T07:19:10;6.83;;;6.23;;
14078;SDS011;7115;50.150;8.568;2023-06-22T07:21:38;7.87;;;6.33;;
14078;SDS011;7115;50.150;8.568;2023-06-22T07:24:06;7.00;;;6.40;;
14078;SDS011;7115;50.150;8.568;2023-06-22T07:26:33;8.43;;;6.40;;
14078;SDS011;7115;50.150;8.568;2023-06-22T07:29:02;7.97;;;6.13;;
14078;SDS011;7115;50.150;8.568;2023-06-22T07:31:28;8.70;;;7.17;;
14078;SDS011;7115;50.150;8.568;2023-06-22T07:33:55;11.67;;;7.23;;
14078;SDS011;7115;50.150;8.568;2023-06-22T07:36:23;9.40;;;6.37;;
14078;SDS011;7115;50.150;8.568;2023-06-22T07:38:50;8.97;;;6.33;;
14078;SDS011;7115;50.150;8.568;2023-06-22T07:41:16;10.37;;;5.97;;
14078;SDS011;7115;50.150;8.568;2023-06-22T07:43:45;7.03;;;6.27;;
14078;SDS011;7115;50.150;8.568;2023-06-22T07:46:14;8.00;;;6.40;;
14078;SDS011;7115;50.150;8.568;2023-06-22T07:48:42;6.77;;;6.07;;
14078;SDS011;7115;50.150;8.568;2023-06-22T07:51:10;8.17;;;6.17;;
14078;SDS011;7115;50.150;8.568;2023-06-22T07:53:39;7.07;;;6.37;;
14078;SDS011;7115;50.150;8.568;2023-06-22T07:56:07;7.03;;;6.33;;
14078;SDS011;7115;50.150;8.568;2023-06-22T07:58:36;10.40;;;6.67;;
14078;SDS011;7115;50.150;8.568;2023-06-22T08:01:03;8.00;;;6.33;;
14078;SDS011;7115;50.150;8.568;2023-06-22T08:03:33;7.70;;;6.17;;
14078;SDS011;7115;50.150;8.568;2023-06-22T08:06:02;6.83;;;6.13;;
14078;SDS011;7115;50.150;8.568;2023-06-22T08:08:32;8.07;;;7.23;;
14078;SDS011;7115;50.150;8.568;2023-06-22T08:10:59;8.83;;;7.43;;
14078;SDS011;7115;50.150;8.568;2023-06-22T08:13:26;9.40;;;6.83;;
14078;SDS011;7115;50.150;8.568;2023-06-22T08:15:55;7.43;;;6.17;;
14078;SDS011;7115;50.150;8.568;2023-06-22T08:18:22;7.77;;;6.93;;
14078;SDS011;7115;50.150;8.568;2023-06-22T08:20:51;8.27;;;6.40;;
14078;SDS011;7115;50.150;8.568;2023-06-22T08:23:18;12.47;;;7.10;;
14078;SDS011;7115;50.150;8.568;2023-06-22T08:25:45;8.17;;;6.73;;
14078;SDS011;7115;50.150;8.568;2023-06-22T08:28:14;8.73;;;6.90;;
14078;SDS011;7115;50.150;8.568;2023-06-22T08:30:42;10.20;;;7.43;;
14078;SDS011;7115;50.150;8.568;2023-06-22T08:33:10;7.67;;;6.60;;
14078;SDS011;7115;50.150;8.568;2023-06-22T08:35:45;9.47;;;7.30;;
14078;SDS011;7115;50.150;8.568;2023-06-22T08:38:14;8.93;;;7.40;;
14078;SDS011;7115;50.150;8.568;2023-06-22T08:40:42;9.00;;;7.13;;
14078;SDS011;7115;50.150;8.568;2023-06-22T08:43:09;9.40;;;7.70;;
14078;SDS011;7115;50.150;8.568;2023-06-22T08:45:36;12.13;;;7.27;;
14078;SDS011;7115;50.150;8.568;2023-06-22T08:48:03;7.30;;;6.57;;
14078;SDS011;7115;50.150;8.568;2023-06-22T08:50:32;9.10;;;7.43;;
14078;SDS011;7115;50.150;8.568;2023-06-22T08:52:59;7.83;;;7.03;;
14078;SDS011;7115;50.150;8.568;2023-06-22T08:55:28;8.57;;;7.67;;
14078;SDS011;7115;50.150;8.568;2023-06-22T08:57:56;9.53;;;7.17;;
14078;SDS011;7115;50.150;8.568;2023-06-22T09:00:24;9.83;;;7.40;;
14078;SDS011;7115;50.150;8.568;2023-06-22T09:02:51;10.20;;;7.17;;
14078;SDS011;7115;50.150;8.568;2023-06-22T09:05:18;8.10;;;7.30;;
14078;SDS011;7115;50.150;8.568;2023-06-22T09:07:45;10.37;;;7.10;;
14078;SDS011;7115;50.150;8.568;2023-06-22T09:10:12;7.70;;;6.80;;
14078;SDS011;7115;50.150;8.568;2023-06-22T09:12:43;7.60;;;6.80;;
14078;SDS011;7115;50.150;8.568;2023-06-22T09:15:11;8.67;;;7.17;;
14078;SDS011;7115;50.150;8.568;2023-06-22T09:17:52;8.97;;;7.13;;
14078;SDS011;7115;50.150;8.568;2023-06-22T09:20:22;12.53;;;7.20;;
14078;SDS011;7115;50.150;8.568;2023-06-22T09:22:49;7.37;;;6.57;;
14078;SDS011;7115;50.150;8.568;2023-06-22T09:25:16;10.80;;;7.23;;
14078;SDS011;7115;50.150;8.568;2023-06-22T09:27:47;8.53;;;6.87;;
14078;SDS011;7115;50.150;8.568;2023-06-22T09:30:14;7.93;;;7.20;;
14078;SDS011;7115;50.150;8.568;2023-06-22T09:32:40;9.17;;;7.10;;
14078;SDS011;7115;50.150;8.568;2023-06-22T09:35:08;7.33;;;6.53;;
14078;SDS011;7115;50.150;8.568;2023-06-22T09:37:43;7.23;;;6.50;;
14078;SDS011;7115;50.150;8.568;2023-06-22T09:40:10;10.17;;;7.40;;
14078;SDS011;7115;50.150;8.568;2023-06-22T09:42:39;11.30;;;7.27;;
14078;SDS011;7115;50.150;8.568;2023-06-22T09:45:09;9.67;;;6.83;;
14078;SDS011;7115;50.150;8.568;2023-06-22T09:47:36;8.70;;;7.73;;
14078;SDS011;7115;50.150;8.568;2023-06-22T09:50:04;11.87;;;7.30;;
14078;SDS011;7115;50.150;8.568;2023-06-22T09:52:31;8.27;;;7.10;;
14078;SDS011;7115;50.150;8.568;2023-06-22T09:55:01;7.03;;;6.33;;
14078;SDS011;7115;50.150;8.568;2023-06-22T09:57:30;12.10;;;7.07;;
14078;SDS011;7115;50.150;8.568;2023-06-22T09:59:57;7.97;;;5.83;;
14078;SDS011;7115;50.150;8.568;2023-06-22T10:02:26;11.40;;;7.30;;
14078;SDS011;7115;50.150;8.568;2023-06-22T10:04:53;10.97;;;6.57;;
14078;SDS011;7115;50.150;8.568;2023-06-22T10:07:20;7.73;;;6.97;;
14078;SDS011;7115;50.150;8.568;2023-06-22T10:09:47;8.50;;;7.60;;
14078;SDS011;7115;50.150;8.568;2023-06-22T10:12:14;7.93;;;6.87;;
14078;SDS011;7115;50.150;8.568;2023-06-22T10:14:41;12.07;;;7.23;;
14078;SDS011;7115;50.150;8.568;2023-06-22T10:17:08;8.53;;;6.77;;
14078;SDS011;7115;50.150;8.568;2023-06-22T10:19:37;8.03;;;6.83;;
14078;SDS011;7115;50.150;8.568;2023-06-22T10:22:04;7.17;;;6.47;;
14078;SDS011;7115;50.150;8.568;2023-06-22T10:24:31;9.53;;;6.57;;
14078;SDS011;7115;50.150;8.568;2023-06-22T10:26:58;7.33;;;6.43;;
14078;SDS011;7115;50.150;8.568;2023-06-22T10:29:25;10.70;;;6.27;;
14078;SDS011;7115;50.150;8.568;2023-06-22T10:31:52;6.63;;;6.00;;
14078;SDS011;7115;50.150;8.568;2023-06-22T10:34:19;6.90;;;5.90;;
14078;SDS011;7115;50.150;8.568;2023-06-22T10:36:47;8.23;;;5.80;;
14078;SDS011;7115;50.150;8.568;2023-06-22T10:39:15;10.33;;;6.00;;
14078;SDS011;7115;50.150;8.568;2023-06-22T10:41:41;6.67;;;5.60;;
14078;SDS011;7115;50.150;8.568;2023-06-22T10:44:08;6.00;;;5.40;;
14078;SDS011;7115;50.150;8.568;2023-06-22T10:46:35;7.40;;;5.10;;
14078;SDS011;7115;50.150;8.568;2023-06-22T10:49:02;5.67;;;4.93;;
14078;SDS011;7115;50.150;8.568;2023-06-22T10:51:29;7.37;;;5.20;;
14078;SDS011;7115;50.150;8.568;2023-06-22T10:53:58;7.47;;;5.07;;
14078;SDS011;7115;50.150;8.568;2023-06-22T10:56:25;6.40;;;5.20;;
14078;SDS011;7115;50.150;8.568;2023-06-22T10:58:52;6.37;;;5.10;;
14078;SDS011;7115;50.150;8.568;2023-06-22T11:01:20;5.87;;;4.70;;
14078;SDS011;7115;50.150;8.568;2023-06-22T11:04:01;7.07;;;5.37;;
14078;SDS011;7115;50.150;8.568;2023-06-22T11:06:28;9.90;;;6.13;;
14078;SDS011;7115;50.150;8.568;2023-06-22T11:08:55;8.30;;;6.10;;
14078;SDS011;7115;50.150;8.568;2023-06-22T11:11:33;6.07;;;5.40;;
14078;SDS011;7115;50.150;8.568;2023-06-22T11:14:00;8.30;;;5.40;;
14078;SDS011;7115;50.150;8.568;2023-06-22T11:16:27;9.20;;;5.83;;
14078;SDS011;7115;50.150;8.568;2023-06-22T11:18:54;6.53;;;5.87;;
14078;SDS011;7115;50.150;8.568;2023-06-22T11:21:20;8.30;;;5.40;;
14078;SDS011;7115;50.150;8.568;2023-06-22T11:23:47;9.47;;;5.70;;
14078;SDS011;7115;50.150;8.568;2023-06-22T11:26:14;6.50;;;5.53;;
14078;SDS011;7115;50.150;8.568;2023-06-22T11:28:43;10.47;;;5.50;;
14078;SDS011;7115;50.150;8.568;2023-06-22T11:31:09;6.63;;;4.83;;
14078;SDS011;7115;50.150;8.568;2023-06-22T11:33:51;6.53;;;5.43;;
14078;SDS011;7115;50.150;8.568;2023-06-22T11:36:18;7.87;;;4.73;;
14078;SDS011;7115;50.150;8.568;2023-06-22T11:38:45;7.67;;;5.80;;
14078;SDS011;7115;50.150;8.568;2023-06-22T11:41:12;9.23;;;5.50;;
14078;SDS011;7115;50.150;8.568;2023-06-22T11:43:39;5.77;;;5.17;;
14078;SDS011;7115;50.150;8.568;2023-06-22T11:46:07;8.57;;;5.50;;
14078;SDS011;7115;50.150;8.568;2023-06-22T11:48:34;7.43;;;5.30;;
14078;SDS011;7115;50.150;8.568;2023-06-22T11:51:02;5.67;;;4.87;;
14078;SDS011;7115;50.150;8.568;2023-06-22T11:53:29;6.10;;;4.97;;
14078;SDS011;7115;50.150;8.568;2023-06-22T11:55:56;9.40;;;5.57;;
14078;SDS011;7115;50.150;8.568;2023-06-22T11:58:23;6.73;;;5.43;;
14078;SDS011;7115;50.150;8.568;2023-06-22T12:00:50;7.83;;;5.40;;
14078;SDS011;7115;50.150;8.568;2023-06-22T12:03:20;6.40;;;5.20;;
14078;SDS011;7115;50.150;8.568;2023-06-22T12:05:50;9.67;;;5.07;;
14078;SDS011;7115;50.150;8.568;2023-06-22T12:08:18;6.30;;;5.70;;
14078;SDS011;7115;50.150;8.568;2023-06-22T12:10:45;11.07;;;6.47;;
14078;SDS011;7115;50.150;8.568;2023-06-22T12:13:12;8.57;;;6.60;;
14078;SDS011;7115;50.150;8.568;2023-06-22T12:15:39;10.63;;;7.53;;
14078;SDS011;7115;50.150;8.568;2023-06-22T12:18:06;18.27;;;9.30;;
14078;SDS011;7115;50.150;8.568;2023-06-22T12:20:34;7.40;;;5.53;;
14078;SDS011;7115;50.150;8.568;2023-06-22T12:23:01;14.70;;;8.20;;
14078;SDS011;7115;50.150;8.568;2023-06-22T12:25:28;7.20;;;6.10;;
14078;SDS011;7115;50.150;8.568;2023-06-22T12:27:55;7.83;;;5.43;;
14078;SDS011;7115;50.150;8.568;2023-06-22T12:30:22;6.23;;;5.57;;
14078;SDS011;7115;50.150;8.568;2023-06-22T12:32:49;8.53;;;5.80;;
14078;SDS011;7115;50.150;8.568;2023-06-22T12:35:17;8.37;;;5.80;;
14078;SDS011;7115;50.150;8.568;2023-06-22T12:37:46;6.27;;;5.67;;
14078;SDS011;7115;50.150;8.568;2023-06-22T12:40:12;7.70;;;5.40;;
14078;SDS011;7115;50.150;8.568;2023-06-22T12:42:39;9.23;;;6.07;;
14078;SDS011;7115;50.150;8.568;2023-06-22T12:45:08;10.20;;;5.77;;
14078;SDS011;7115;50.150;8.568;2023-06-22T12:47:35;9.00;;;6.30;;
14078;SDS011;7115;50.150;8.568;2023-06-22T12:50:02;9.47;;;5.77;;
14078;SDS011;7115;50.150;8.568;2023-06-22T12:52:30;10.70;;;5.93;;
14078;SDS011;7115;50.150;8.568;2023-06-22T12:54:59;7.93;;;5.50;;
14078;SDS011;7115;50.150;8.568;2023-06-22T12:57:26;12.93;;;5.90;;
14078;SDS011;7115;50.150;8.568;2023-06-22T12:59:53;8.13;;;5.37;;
14078;SDS011;7115;50.150;8.568;2023-06-22T13:02:20;10.83;;;5.70;;
14078;SDS011;7115;50.150;8.568;2023-06-22T13:04:47;14.10;;;6.00;;
14078;SDS011;7115;50.150;8.568;2023-06-22T13:07:14;10.93;;;6.57;;
14078;SDS011;7115;50.150;8.568;2023-06-22T13:09:48;8.13;;;5.93;;
14078;SDS011;7115;50.150;8.568;2023-06-22T13:12:20;9.40;;;5.63;;
14078;SDS011;7115;50.150;8.568;2023-06-22T13:14:47;12.30;;;6.57;;
14078;SDS011;7115;50.150;8.568;2023-06-22T13:17:14;7.10;;;5.53;;
14078;SDS011;7115;50.150;8.568;2023-06-22T13:19:41;10.57;;;6.10;;
14078;SDS011;7115;50.150;8.568;2023-06-22T13:22:25;7.90;;;6.37;;
14078;SDS011;7115;50.150;8.568;2023-06-22T13:24:54;8.53;;;5.87;;
14078;SDS011;7115;50.150;8.568;2023-06-22T13:27:23;8.57;;;6.00;;
14078;SDS011;7115;50.150;8.568;2023-06-22T13:29:50;7.57;;;5.90;;
14078;SDS011;7115;50.150;8.568;2023-06-22T13:32:17;7.83;;;5.67;;
14078;SDS011;7115;50.150;8.568;2023-06-22T13:34:44;9.63;;;6.37;;
14078;SDS011;7115;50.150;8.568;2023-06-22T13:37:11;12.17;;;6.37;;
14078;SDS011;7115;50.150;8.568;2023-06-22T13:39:38;9.53;;;5.50;;
14078;SDS011;7115;50.150;8.568;2023-06-22T13:42:05;8.67;;;5.77;;
14078;SDS011;7115;50.150;8.568;2023-06-22T13:44:34;10.53;;;6.10;;
14078;SDS011;7115;50.150;8.568;2023-06-22T13:47:01;13.63;;;5.77;;
14078;SDS011;7115;50.150;8.568;2023-06-22T13:49:27;10.60;;;6.53;;
14078;SDS011;7115;50.150;8.568;2023-06-22T13:51:54;12.50;;;6.10;;
14078;SDS011;7115;50.150;8.568;2023-06-22T13:54:21;10.77;;;5.67;;
14078;SDS011;7115;50.150;8.568;2023-06-22T13:56:51;9.20;;;6.33;;
14078;SDS011;7115;50.150;8.568;2023-06-22T13:59:18;10.93;;;6.50;;
14078;SDS011;7115;50.150;8.568;2023-06-22T14:01:47;10.73;;;6.00;;
14078;SDS011;7115;50.150;8.568;2023-06-22T14:04:14;11.33;;;6.10;;
14078;SDS011;7115;50.150;8.568;2023-06-22T14:06:41;13.20;;;6.40;;
14078;SDS011;7115;50.150;8.568;2023-06-22T14:09:08;9.57;;;6.00;;
14078;SDS011;7115;50.150;8.568;2023-06-22T14:11:35;14.07;;;6.27;;
14078;SDS011;7115;50.150;8.568;2023-06-22T14:14:02;9.17;;;6.40;;
14078;SDS011;7115;50.150;8.568;2023-06-22T14:16:29;11.53;;;6.83;;
14078;SDS011;7115;50.150;8.568;2023-06-22T14:18:57;7.93;;;5.50;;
14078;SDS011;7115;50.150;8.568;2023-06-22T14:21:24;10.77;;;6.30;;
14078;SDS011;7115;50.150;8.568;2023-06-22T14:23:51;7.57;;;5.57;;
14078;SDS011;7115;50.150;8.568;2023-06-22T14:26:18;10.70;;;6.30;;
14078;SDS011;7115;50.150;8.568;2023-06-22T14:28:46;9.43;;;5.70;;
14078;SDS011;7115;50.150;8.568;2023-06-22T14:31:14;7.73;;;5.30;;
14078;SDS011;7115;50.150;8.568;2023-06-22T14:33:47;7.80;;;5.63;;
14078;SDS011;7115;50.150;8.568;2023-06-22T14:36:16;9.93;;;5.80;;
14078;SDS011;7115;50.150;8.568;2023-06-22T14:38:44;9.00;;;4.90;;
14078;SDS011;7115;50.150;8.568;2023-06-22T14:41:13;9.87;;;4.87;;
14078;SDS011;7115;50.150;8.568;2023-06-22T14:43:44;10.73;;;3.57;;
14078;SDS011;7115;50.150;8.568;2023-06-22T14:46:12;10.47;;;4.13;;
14078;SDS011;7115;50.150;8.568;2023-06-22T14:48:39;15.63;;;4.10;;
14078;SDS011;7115;50.150;8.568;2023-06-22T14:51:05;12.57;;;4.33;;
14078;SDS011;7115;50.150;8.568;2023-06-22T14:53:33;12.77;;;3.80;;
14078;SDS011;7115;50.150;8.568;2023-06-22T14:56:00;8.20;;;3.60;;
14078;SDS011;7115;50.150;8.568;2023-06-22T14:58:28;12.83;;;4.40;;
14078;SDS011;7115;50.150;8.568;2023-06-22T15:00:59;9.63;;;4.30;;
14078;SDS011;7115;50.150;8.568;2023-06-22T15:03:26;11.07;;;3.97;;